PTAO2: Poteau River, Poteau, OK

                                SHEF ID:       PTAO2     Poteau River at Poteau, OK
STATION TYPE:
Regulating: Stage = 20.00, Flow = 7395

PRECIP STAGE RIV-FLOW VOLTAGE BAT-LOAD
in ft cfs volt volt
Ccp-Rev Ccp-Rev Ccp-Rev Ccp-Rev Ccp-Rev
(America/Chicago)
07/14 00:00 0.00 10.93 3199 12.90 12.25
07/14 01:00 0.00 10.84 3165 12.88 12.25
07/14 02:00 0.00 10.78 3143 12.87 12.25
07/14 03:00 0.00 10.65 3096 12.86 12.23
07/14 04:00 0.00 10.54 3055 12.84 12.18
07/14 05:00 0.00 10.44 3018 12.83 12.21
07/14 06:00 0.00 10.33 2978 12.81 12.16
07/14 07:00 0.00 10.21 2934 12.86 12.18
07/14 08:00 0.00 10.10 2894 13.03 12.33
07/14 09:00 0.00 10.01 2861 13.41 12.60
07/14 10:00 0.00 9.92 2828 13.95 12.80
07/14 11:00 0.00 9.81 2788 13.36 12.74
07/14 12:00 0.00 9.74 2763 13.26 12.54
07/14 13:00 0.00 9.65 2730 13.16 12.50
07/14 14:00 0.00 9.58 2704 13.16 12.48
07/14 15:00 0.00 9.50 2675 13.13 12.45
07/14 16:00 0.00 9.44 2654 13.05 12.40
07/14 17:00 0.00 9.36 2625 13.03 12.37
07/14 18:00 0.00 9.31 2607 13.06 12.34
07/14 19:00 0.00 9.28 2596 13.21 12.36
07/14 20:00 0.00 9.26 2589 13.07 12.41
07/14 21:00 0.00 9.17 2556 12.94 12.34
07/14 22:00 0.00 9.13 2542 12.90 12.31
07/14 23:00 0.00 9.13 2542 12.89 12.25
Data processed at Tue 15Jul2025 04:48 GMT

Parsing this webpage?

Checkout our new Data API! CWMSDataAPI (CDA)

Timeseries IDs (TSIDs)

TSIDs used from left to right in the data table
POTE.Precip-Inc.Total.1Hour.1Hour.Ccp-Rev
POTE.Stage.Inst.1Hour.0.Ccp-Rev
POTE.Flow.Inst.1Hour.0.Ccp-Rev
POTE.Volt-Battery.Inst.1Hour.0.Ccp-Rev
POTE.Volt-Battery Load.Inst.1Hour.0.Ccp-Rev

                            

All information presented herein is the property of the government of the United States of America and may be revised or deleted at any time without prior notice. Dissemination of this information without the expressed written consent of the Public Affairs Office, Tulsa District U.S. Army Corps of Engineers is strictly prohibited. These data are gathered electronically and, as presented, have NOT undergone any form of quality control. These data are NOT guaranteed to be valid or correct.